Time;durP1;ratioP1;P1;durP2;ratioP2;P2;SDS_P1;SDS_P2;PMS_P1;PMS_P2;Temp;Humidity;BMP_temperature;BMP_pressure;BME280_temperature;BME280_humidity;BME280_pressure;Samples;Min_cycle;Max_cycle;Signal;HPM_P1;HPM_P2
2021/10/07 00:00:30;;;;;;;20.67;16.50;;;;;;;13.45;100.00;100778.97;4992051;28;20480;-62
2021/10/07 00:02:55;;;;;;;22.83;15.75;;;;;;;13.44;100.00;100787.19;4991971;28;20026;-63
2021/10/07 00:05:21;;;;;;;21.00;16.02;;;;;;;13.44;100.00;100784.50;4991990;28;20076;-63
2021/10/07 00:07:46;;;;;;;21.10;16.42;;;;;;;13.44;100.00;100784.50;5006480;28;20032;-63
2021/10/07 00:10:12;;;;;;;24.70;16.42;;;;;;;13.43;100.00;100791.75;4991616;28;20148;-62
2021/10/07 00:12:37;;;;;;;20.85;16.75;;;;;;;13.43;100.00;100788.19;4992066;28;20041;-63
2021/10/07 00:15:04;;;;;;;20.90;16.23;;;;;;;13.42;100.00;100790.03;4991502;28;20037;-63
2021/10/07 00:17:30;;;;;;;19.05;16.02;;;;;;;13.41;100.00;100791.03;4991414;28;20026;-62
2021/10/07 00:19:55;;;;;;;20.10;15.73;;;;;;;13.42;100.00;100790.03;4991489;28;20056;-61
2021/10/07 00:22:21;;;;;;;25.80;16.65;;;;;;;13.44;100.00;100795.25;5006517;28;20030;-63
2021/10/07 00:24:47;;;;;;;20.73;16.35;;;;;;;13.41;100.00;100795.53;4991468;28;20057;-63
2021/10/07 00:27:12;;;;;;;20.17;15.50;;;;;;;13.45;100.00;100794.28;4991323;28;20061;-63
2021/10/07 00:29:45;;;;;;;20.15;16.90;;;;;;;13.44;100.00;100798.81;4991199;28;20038;-63
2021/10/07 00:32:23;;;;;;;34.03;17.02;;;;;;;13.45;100.00;100802.38;5006252;28;20141;-62
2021/10/07 00:35:05;;;;;;;20.73;16.38;;;;;;;13.45;100.00;100803.22;4991105;28;20033;-62
2021/10/07 00:40:04;;;;;;;25.80;16.90;;;;;;;13.45;100.00;100797.00;4991254;28;20027;-64
2021/10/07 00:42:30;;;;;;;22.65;16.55;;;;;;;13.43;100.00;100790.88;4990732;28;20039;-65
2021/10/07 00:44:55;;;;;;;19.77;17.10;;;;;;;13.45;100.00;100794.28;4991060;28;20061;-64
2021/10/07 00:47:21;;;;;;;21.08;17.10;;;;;;;13.39;100.00;100781.38;4991102;28;20507;-63
2021/10/07 00:49:46;;;;;;;23.35;15.48;;;;;;;13.46;100.00;100794.16;4991119;28;20026;-64
2021/10/07 00:52:17;;;;;;;21.75;16.05;;;;;;;13.46;100.00;100787.91;4990837;28;20551;-64
2021/10/07 00:54:44;;;;;;;22.75;16.30;;;;;;;13.45;100.00;100791.59;4990906;28;20041;-64
2021/10/07 00:57:16;;;;;;;19.75;15.70;;;;;;;13.45;100.00;100786.22;4990847;28;20428;-64
2021/10/07 00:59:42;;;;;;;21.77;16.65;;;;;;;13.37;100.00;100767.19;4990711;28;20069;-62
2021/10/07 01:02:08;;;;;;;25.80;17.30;;;;;;;13.47;100.00;100784.22;4990779;28;20054;-64
2021/10/07 01:04:35;;;;;;;22.33;15.90;;;;;;;13.47;100.00;100787.75;4990957;28;20506;-63
2021/10/07 01:07:02;;;;;;;20.05;17.00;;;;;;;13.47;100.00;100785.06;4990800;28;20037;-63
2021/10/07 01:09:28;;;;;;;22.02;16.02;;;;;;;13.46;100.00;100777.13;5005895;28;20061;-63
2021/10/07 01:11:55;;;;;;;19.13;16.35;;;;;;;13.42;100.00;100770.31;4991005;28;20041;-63
2021/10/07 01:14:43;;;;;;;22.65;17.30;;;;;;;13.45;100.00;100773.56;4990641;28;20026;-64
2021/10/07 01:17:09;;;;;;;19.98;15.73;;;;;;;13.48;100.00;100780.53;4990614;28;20129;-63
2021/10/07 01:19:48;;;;;;;19.33;15.23;;;;;;;13.46;100.00;100780.69;4990614;28;20026;-64
2021/10/07 01:22:14;;;;;;;20.42;16.38;;;;;;;13.49;100.00;100776.84;4990498;28;20416;-64
2021/10/07 01:24:40;;;;;;;20.85;16.70;;;;;;;13.45;100.00;100768.19;4990552;28;20096;-62
2021/10/07 01:27:06;;;;;;;22.20;16.92;;;;;;;13.43;100.00;100780.97;4990339;28;20042;-62
2021/10/07 01:29:32;;;;;;;24.20;16.27;;;;;;;13.43;100.00;100782.78;5005416;28;20133;-62
2021/10/07 01:31:58;;;;;;;26.63;16.65;;;;;;;13.44;100.00;100779.09;4990582;28;20109;-63
2021/10/07 01:34:26;;;;;;;22.85;16.52;;;;;;;13.43;100.00;100783.66;4990717;28;20031;-62
2021/10/07 01:36:53;;;;;;;20.33;16.52;;;;;;;13.43;100.00;100778.28;4990610;28;20031;-64
2021/10/07 01:39:20;;;;;;;24.70;17.10;;;;;;;13.42;100.00;100781.09;4990241;28;20030;-64
2021/10/07 01:41:45;;;;;;;21.02;16.13;;;;;;;13.43;100.00;100782.78;4990467;28;20120;-63
2021/10/07 01:44:11;;;;;;;19.13;16.27;;;;;;;13.42;100.00;100781.94;4990333;28;20114;-64
2021/10/07 01:46:37;;;;;;;20.23;16.10;;;;;;;13.37;100.00;100772.56;4990409;28;20028;-63
2021/10/07 01:49:03;;;;;;;21.85;17.55;;;;;;;13.42;100.00;100778.41;4990322;28;20030;-63
2021/10/07 01:51:28;;;;;;;25.63;17.02;;;;;;;13.41;100.00;100769.47;4990285;28;20031;-64
2021/10/07 01:53:54;;;;;;;23.63;17.83;;;;;;;13.38;100.00;100766.19;4991788;28;20037;-64
2021/10/07 01:56:19;;;;;;;21.40;17.15;;;;;;;13.31;100.00;100759.66;4994404;28;20513;-64
2021/10/07 01:58:45;;;;;;;18.70;15.48;;;;;;;13.40;100.00;100766.91;4994313;28;20018;-63
2021/10/07 02:01:10;;;;;;;24.05;17.30;;;;;;;13.39;100.00;100768.75;4993917;28;20053;-63
2021/10/07 02:03:36;;;;;;;22.48;16.10;;;;;;;13.28;100.00;100741.97;4994165;28;20022;-65
2021/10/07 02:06:01;;;;;;;23.77;17.38;;;;;;;13.38;100.00;100767.06;4994124;28;20030;-64
2021/10/07 02:08:27;;;;;;;22.38;16.90;;;;;;;13.39;100.00;100759.84;4994289;28;20077;-64
2021/10/07 02:10:53;;;;;;;21.42;16.20;;;;;;;13.37;100.00;100757.28;4994151;28;20034;-65
2021/10/07 02:13:18;;;;;;;23.42;16.83;;;;;;;13.32;100.00;100758.69;4993813;28;20029;-63
2021/10/07 02:15:44;;;;;;;21.05;16.85;;;;;;;13.37;100.00;100762.66;4994023;28;21061;-64
2021/10/07 02:18:10;;;;;;;26.17;17.00;;;;;;;13.33;100.00;100765.78;5008865;28;20030;-64
2021/10/07 02:20:37;;;;;;;18.77;15.05;;;;;;;13.36;100.00;100777.13;4993712;28;20476;-65
2021/10/07 02:23:03;;;;;;;20.70;15.65;;;;;;;13.34;100.00;100779.09;4993665;28;20030;-64
2021/10/07 02:25:28;;;;;;;20.60;16.40;;;;;;;13.36;100.00;100787.91;4993372;28;20033;-63
2021/10/07 02:27:54;;;;;;;18.23;14.85;;;;;;;13.34;100.00;100794.41;4993745;28;20064;-61
2021/10/07 02:30:19;;;;;;;24.50;16.05;;;;;;;13.36;100.00;100797.84;4993522;28;20092;-63
2021/10/07 02:32:46;;;;;;;23.20;15.60;;;;;;;13.32;100.00;100796.41;5008565;28;20566;-62
2021/10/07 02:35:12;;;;;;;20.27;15.90;;;;;;;13.33;100.00;100793.59;4993322;28;20073;-63
2021/10/07 02:37:38;;;;;;;24.67;16.52;;;;;;;13.32;100.00;100802.63;5008387;28;20060;-63
2021/10/07 02:40:05;;;;;;;20.10;15.40;;;;;;;13.32;100.00;100799.09;4993384;28;20472;-64
2021/10/07 02:42:30;;;;;;;17.75;14.95;;;;;;;13.24;100.00;100789.03;4993299;28;20512;-64
2021/10/07 02:44:56;;;;;;;19.00;16.00;;;;;;;13.31;100.00;100790.16;4993278;28;20120;-63
2021/10/07 02:47:21;;;;;;;18.60;15.90;;;;;;;13.24;100.00;100785.47;4993533;28;20077;-64
2021/10/07 02:49:47;;;;;;;22.13;16.63;;;;;;;13.30;100.00;100806.47;4993299;28;20611;-62
2021/10/07 02:52:12;;;;;;;20.23;16.15;;;;;;;13.30;100.00;100801.94;4992957;28;20118;-63
2021/10/07 02:54:38;;;;;;;22.65;15.95;;;;;;;13.22;100.00;100792.88;4993151;28;20416;-63
2021/10/07 02:57:03;;;;;;;21.88;15.95;;;;;;;13.33;100.00;100814.28;4993088;28;20033;-64
2021/10/07 02:59:29;;;;;;;20.33;16.05;;;;;;;13.19;100.00;100791.28;4993140;28;20037;-64
2021/10/07 03:01:54;;;;;;;23.15;16.70;;;;;;;13.31;100.00;100810.84;4993277;28;20488;-64
2021/10/07 03:04:20;;;;;;;22.98;16.58;;;;;;;13.26;100.00;100794.28;4993014;28;20073;-64
2021/10/07 03:06:45;;;;;;;18.92;16.33;;;;;;;13.31;100.00;100809.03;4992430;28;20019;-64
2021/10/07 03:09:11;;;;;;;20.55;16.00;;;;;;;13.29;100.00;100819.06;4992556;28;20057;-64
2021/10/07 03:11:36;;;;;;;20.73;15.20;;;;;;;13.29;100.00;100812.84;4992843;28;20026;-62
2021/10/07 03:14:02;;;;;;;19.33;15.68;;;;;;;13.32;100.00;100815.28;4992834;28;20121;-64
2021/10/07 03:16:27;;;;;;;21.80;16.73;;;;;;;13.24;100.00;100802.50;4992688;28;20026;-64
2021/10/07 03:18:53;;;;;;;20.13;15.93;;;;;;;13.33;100.00;100819.66;4993063;28;20026;-61
2021/10/07 03:21:18;;;;;;;20.50;16.05;;;;;;;13.26;100.00;100805.06;4992508;28;20030;-62
2021/10/07 03:23:44;;;;;;;20.50;17.17;;;;;;;13.27;100.00;100813.00;4992402;28;20290;-62
2021/10/07 03:26:09;;;;;;;19.77;16.90;;;;;;;13.30;100.00;100809.16;5007253;28;20050;-63
2021/10/07 03:28:35;;;;;;;20.83;15.80;;;;;;;13.29;100.00;100813.69;4992409;28;20027;-62
2021/10/07 03:31:00;;;;;;;19.92;16.25;;;;;;;13.30;100.00;100823.50;4992484;28;20026;-63
2021/10/07 03:33:26;;;;;;;20.02;15.77;;;;;;;13.30;100.00;100820.81;4992831;28;20085;-63
2021/10/07 03:35:51;;;;;;;19.77;15.88;;;;;;;13.31;100.00;100821.63;4992450;28;20109;-63
2021/10/07 03:38:17;;;;;;;20.13;15.85;;;;;;;13.26;100.00;100815.84;4992092;28;20041;-63
2021/10/07 03:40:42;;;;;;;21.92;17.92;;;;;;;13.29;100.00;100823.63;4992296;28;20102;-63
2021/10/07 03:43:08;;;;;;;22.55;16.27;;;;;;;13.29;100.00;100823.63;4992122;28;20480;-62
2021/10/07 03:45:33;;;;;;;20.98;17.08;;;;;;;13.30;100.00;100830.72;4992124;28;20034;-63
2021/10/07 03:47:59;;;;;;;22.42;16.17;;;;;;;13.29;100.00;100826.31;4992319;28;20077;-63
2021/10/07 03:50:25;;;;;;;20.75;15.90;;;;;;;13.29;100.00;100829.03;5007501;28;20037;-63
2021/10/07 03:52:50;;;;;;;23.90;16.60;;;;;;;13.27;100.00;100826.47;4991903;28;20113;-63
2021/10/07 03:55:16;;;;;;;20.55;16.23;;;;;;;13.23;100.00;100824.19;5006740;28;20057;-62
2021/10/07 03:57:41;;;;;;;22.23;15.68;;;;;;;13.26;100.00;100826.59;4992043;28;20081;-63
2021/10/07 04:00:09;;;;;;;18.70;14.82;;;;;;;13.26;100.00;100822.03;4991935;28;20038;-63
2021/10/07 04:02:35;;;;;;;20.25;15.40;;;;;;;13.23;100.00;100822.31;4991896;28;20510;-62
2021/10/07 04:05:00;;;;;;;23.63;16.38;;;;;;;13.23;100.00;100813.41;4991872;28;20023;-62
2021/10/07 04:07:26;;;;;;;20.58;15.75;;;;;;;13.25;100.00;100827.56;4991325;28;20026;-64
2021/10/07 04:09:51;;;;;;;22.55;16.77;;;;;;;13.17;100.00;100813.97;4991226;28;20037;-64
2021/10/07 04:12:17;;;;;;;21.55;16.83;;;;;;;13.23;100.00;100830.41;4991310;28;20113;-62
2021/10/07 04:14:42;;;;;;;21.20;16.77;;;;;;;13.23;100.00;100825.03;4990333;28;20510;-63
2021/10/07 04:17:08;;;;;;;21.30;16.42;;;;;;;13.21;100.00;100820.78;4997812;28;20042;-64
2021/10/07 04:19:33;;;;;;;23.27;16.10;;;;;;;13.23;100.00;100835.78;4991047;28;20025;-65
2021/10/07 04:21:59;;;;;;;19.55;16.25;;;;;;;13.18;100.00;100821.91;4991114;28;20022;-65
2021/10/07 04:24:24;;;;;;;20.77;15.80;;;;;;;13.22;100.00;100834.09;4989892;28;20377;-65
2021/10/07 04:26:50;;;;;;;19.73;15.57;;;;;;;13.21;100.00;100828.84;4990778;28;20043;-63
2021/10/07 04:29:15;;;;;;;19.23;15.65;;;;;;;13.21;100.00;100831.53;4990618;28;20053;-64
2021/10/07 04:31:41;;;;;;;22.77;15.82;;;;;;;13.21;100.00;100829.72;4983595;28;20085;-63
2021/10/07 04:34:07;;;;;;;18.52;15.40;;;;;;;13.21;100.00;100835.09;4990869;28;20034;-64
2021/10/07 04:36:33;;;;;;;21.67;16.15;;;;;;;13.17;100.00;100822.03;4989126;28;20065;-64
2021/10/07 04:38:59;;;;;;;19.63;15.80;;;;;;;13.19;100.00;100828.16;4991070;28;20032;-63
2021/10/07 04:41:24;;;;;;;22.75;15.77;;;;;;;13.17;100.00;100830.13;4990707;28;20539;-63
2021/10/07 04:43:50;;;;;;;25.85;15.98;;;;;;;13.17;100.00;100831.00;4990380;28;20030;-64
2021/10/07 04:46:18;;;;;;;21.70;16.77;;;;;;;13.17;100.00;100832.81;4990311;28;20361;-65
2021/10/07 04:48:44;;;;;;;21.75;16.13;;;;;;;13.11;100.00;100825.28;4997402;28;20026;-65
2021/10/07 04:51:10;;;;;;;19.92;16.67;;;;;;;13.16;100.00;100834.66;4990281;28;20022;-63
2021/10/07 04:53:35;;;;;;;20.10;15.57;;;;;;;13.15;100.00;100830.25;4990756;28;20417;-64
2021/10/07 04:56:01;;;;;;;20.13;14.95;;;;;;;13.11;100.00;100827.97;4990868;28;20023;-63
2021/10/07 04:58:26;;;;;;;23.88;15.23;;;;;;;13.12;100.00;100835.94;4991098;28;20473;-65
2021/10/07 05:00:52;;;;;;;20.20;15.05;;;;;;;13.05;100.00;100821.31;4990596;28;20053;-65
2021/10/07 05:03:18;;;;;;;18.25;15.15;;;;;;;13.14;100.00;100846.56;4990206;28;20024;-64
2021/10/07 05:05:44;;;;;;;23.48;15.55;;;;;;;13.10;100.00;100831.69;4990368;28;20380;-65
2021/10/07 05:08:10;;;;;;;19.88;15.50;;;;;;;13.10;100.00;100845.13;4990329;28;20168;-65
2021/10/07 05:10:36;;;;;;;20.33;14.75;;;;;;;13.10;100.00;100845.13;4990645;28;20109;-64
2021/10/07 05:13:01;;;;;;;20.77;14.57;;;;;;;13.09;100.00;100848.84;4991280;28;20519;-64
2021/10/07 05:15:27;;;;;;;19.35;14.90;;;;;;;13.04;100.00;100834.91;4991158;28;20063;-64
2021/10/07 05:17:53;;;;;;;19.63;14.27;;;;;;;13.08;100.00;100847.09;4990824;28;20030;-63
2021/10/07 05:20:19;;;;;;;16.88;14.27;;;;;;;13.09;100.00;100851.53;4990605;28;20030;-64
2021/10/07 05:22:45;;;;;;;20.75;14.05;;;;;;;13.08;100.00;100857.88;4990770;28;20113;-64
2021/10/07 05:25:11;;;;;;;22.20;15.93;;;;;;;13.07;100.00;100856.19;4982755;28;20052;-64
2021/10/07 05:27:37;;;;;;;17.92;14.18;;;;;;;12.95;100.00;100831.19;4988430;28;20081;-64
2021/10/07 05:30:04;;;;;;;19.38;15.00;;;;;;;13.05;100.00;100859.00;4989076;28;20445;-64
2021/10/07 05:32:30;;;;;;;18.25;13.55;;;;;;;12.99;100.00;100835.31;4989718;28;20392;-64
2021/10/07 05:34:55;;;;;;;19.45;14.90;;;;;;;13.05;100.00;100847.38;4983160;28;20018;-65
2021/10/07 05:37:21;;;;;;;22.95;16.05;;;;;;;13.05;100.00;100855.47;4987036;28;20038;-64
2021/10/07 05:39:47;;;;;;;23.98;15.93;;;;;;;13.00;100.00;100852.34;4988093;28;20079;-65
2021/10/07 05:42:12;;;;;;;20.98;15.35;;;;;;;13.03;100.00;100860.97;5002710;28;20030;-63
2021/10/07 05:44:38;;;;;;;20.15;15.27;;;;;;;13.03;100.00;100862.84;4981646;28;20035;-64
2021/10/07 05:47:04;;;;;;;21.08;15.38;;;;;;;13.01;100.00;100864.81;4988549;28;20022;-64
2021/10/07 05:49:29;;;;;;;20.98;14.63;;;;;;;13.01;100.00;100862.13;4987909;28;20053;-64
2021/10/07 05:51:55;;;;;;;22.13;14.50;;;;;;;12.92;100.00;100852.13;4983423;28;20069;-64
2021/10/07 05:54:21;;;;;;;21.02;15.30;;;;;;;13.01;100.00;100862.97;4986277;28;20034;-64
2021/10/07 05:56:47;;;;;;;22.45;16.70;;;;;;;13.00;100.00;100871.19;4983612;28;20110;-63
2021/10/07 05:59:13;;;;;;;19.30;15.95;;;;;;;12.97;100.00;100871.44;4988331;28;20113;-64
2021/10/07 06:01:39;;;;;;;22.60;15.10;;;;;;;12.99;100.00;100885.63;4989444;28;20496;-64
2021/10/07 06:04:04;;;;;;;19.38;15.18;;;;;;;12.98;100.00;100886.59;4989485;28;20472;-65
2021/10/07 06:06:30;;;;;;;20.13;14.52;;;;;;;13.00;100.00;100890.03;4989649;28;20077;-64
2021/10/07 06:08:55;;;;;;;19.67;15.35;;;;;;;12.87;100.00;100879.44;4988023;28;20129;-64
2021/10/07 06:11:21;;;;;;;25.75;15.25;;;;;;;12.99;100.00;100896.38;4988457;28;20041;-63
2021/10/07 06:13:46;;;;;;;22.88;15.15;;;;;;;13.00;100.00;100911.59;4989650;28;20022;-65
2021/10/07 06:16:12;;;;;;;20.60;16.10;;;;;;;12.99;100.00;100902.63;4989188;28;20109;-65
2021/10/07 06:18:38;;;;;;;21.85;14.65;;;;;;;12.99;100.00;100908.03;4985954;28;20057;-65
2021/10/07 06:21:03;;;;;;;20.15;15.30;;;;;;;12.98;100.00;100906.31;4989319;28;20022;-64
2021/10/07 06:23:29;;;;;;;20.42;14.80;;;;;;;12.97;100.00;100907.25;4989390;28;20035;-65
2021/10/07 06:25:54;;;;;;;16.30;13.57;;;;;;;12.99;100.00;100909.84;4989138;28;20400;-65
2021/10/07 06:28:20;;;;;;;21.45;14.02;;;;;;;12.96;100.00;100902.03;4989213;28;20042;-64
2021/10/07 06:30:46;;;;;;;24.38;15.02;;;;;;;12.92;100.00;100897.91;4989162;28;20030;-64
2021/10/07 06:33:11;;;;;;;19.20;13.88;;;;;;;12.98;100.00;100905.44;4988143;28;20034;-65
2021/10/07 06:35:37;;;;;;;17.23;13.90;;;;;;;12.99;100.00;100907.16;4982929;28;20046;-63
2021/10/07 06:38:02;;;;;;;20.60;14.40;;;;;;;13.01;100.00;100907.91;4983573;28;20050;-64
2021/10/07 06:40:28;;;;;;;22.65;14.35;;;;;;;12.98;100.00;100906.31;4984942;28;20023;-65
2021/10/07 06:42:54;;;;;;;16.25;13.23;;;;;;;12.98;100.00;100913.50;4990880;28;20415;-65
2021/10/07 06:45:20;;;;;;;16.98;13.70;;;;;;;12.98;100.00;100913.50;4991120;28;20026;-63
2021/10/07 06:47:45;;;;;;;22.65;14.60;;;;;;;12.94;100.00;100904.88;4992480;28;20105;-64
2021/10/07 06:50:11;;;;;;;17.40;13.20;;;;;;;12.97;100.00;100906.44;4991946;28;20109;-64
2021/10/07 06:52:39;;;;;;;18.02;13.27;;;;;;;12.95;100.00;100897.63;4992010;28;20034;-65
2021/10/07 06:55:05;;;;;;;17.10;13.25;;;;;;;12.96;100.00;100904.75;4990663;28;20412;-63
2021/10/07 06:57:31;;;;;;;18.33;12.77;;;;;;;12.98;100.00;100900.91;4992256;28;20026;-63
2021/10/07 06:59:57;;;;;;;16.42;13.18;;;;;;;12.98;100.00;100900.91;4992017;28;20504;-64
2021/10/07 07:02:23;;;;;;;19.17;13.07;;;;;;;12.99;100.00;100901.78;4991533;28;20061;-64
2021/10/07 07:04:48;;;;;;;16.17;12.75;;;;;;;12.91;100.00;100888.97;4991851;28;20027;-64
2021/10/07 07:07:14;;;;;;;17.13;11.95;;;;;;;12.98;100.00;100895.53;5007734;28;20078;-63
2021/10/07 07:09:39;;;;;;;19.27;12.88;;;;;;;12.97;100.00;100895.66;5010177;28;20491;-63
2021/10/07 07:12:05;;;;;;;17.70;13.43;;;;;;;12.99;100.00;100901.78;5012036;28;20033;-61
2021/10/07 07:14:32;;;;;;;19.02;12.82;;;;;;;12.90;100.00;100886.44;5001773;28;20469;-63
2021/10/07 07:16:57;;;;;;;19.20;12.77;;;;;;;12.99;100.00;100907.16;4991450;28;20032;-63
2021/10/07 07:19:23;;;;;;;17.42;12.48;;;;;;;12.97;100.00;100912.66;4991646;28;20030;-62
2021/10/07 07:21:49;;;;;;;20.55;13.20;;;;;;;12.99;100.00;100918.78;4991514;28;20439;-63
2021/10/07 07:24:14;;;;;;;18.88;12.65;;;;;;;12.96;100.00;100919.03;5009004;28;20053;-63
2021/10/07 07:26:40;;;;;;;16.92;12.85;;;;;;;12.99;100.00;100934.09;5010805;28;20069;-63
2021/10/07 07:29:06;;;;;;;17.05;13.23;;;;;;;12.93;100.00;100931.94;5009886;28;20044;-63
2021/10/07 07:31:32;;;;;;;16.20;11.60;;;;;;;12.94;100.00;100926.41;5010778;28;20487;-63
2021/10/07 07:33:59;;;;;;;20.35;12.60;;;;;;;12.96;100.00;100929.81;5010782;28;20057;-63
2021/10/07 07:36:25;;;;;;;18.00;12.55;;;;;;;12.97;100.00;100933.34;5009564;28;20116;-63
2021/10/07 07:38:52;;;;;;;20.27;12.48;;;;;;;12.95;100.00;100932.63;5026107;28;20615;-63
2021/10/07 07:41:18;;;;;;;18.83;12.77;;;;;;;12.91;100.00;100932.06;5026174;28;20025;-63
2021/10/07 07:43:44;;;;;;;15.77;11.73;;;;;;;12.88;100.00;100942.25;5010718;28;20068;-63
2021/10/07 07:46:11;;;;;;;17.45;12.13;;;;;;;12.94;100.00;100953.34;5010502;28;20048;-61
2021/10/07 07:48:37;;;;;;;19.10;12.63;;;;;;;12.89;100.00;100938.53;5011045;28;20053;-62
2021/10/07 07:51:03;;;;;;;14.57;10.77;;;;;;;12.94;100.00;100952.47;5010477;28;20498;-61
2021/10/07 07:53:29;;;;;;;15.80;11.70;;;;;;;12.89;100.00;100935.84;5010557;28;20454;-63
2021/10/07 07:55:55;;;;;;;16.73;11.93;;;;;;;12.92;100.00;100947.22;5010353;28;20065;-64
2021/10/07 07:58:21;;;;;;;18.17;11.63;;;;;;;12.86;100.00;100945.06;5010289;28;20535;-62
2021/10/07 08:00:47;;;;;;;15.77;11.05;;;;;;;12.85;100.00;100937.97;5010471;28;20097;-63
2021/10/07 08:03:14;;;;;;;15.80;11.50;;;;;;;12.82;100.00;100932.00;5010081;28;20033;-63
2021/10/07 08:05:40;;;;;;;16.15;10.70;;;;;;;12.89;100.00;100943.94;5010404;28;20048;-62
2021/10/07 08:08:05;;;;;;;18.85;11.20;;;;;;;12.92;100.00;100957.13;5010758;28;20018;-63
2021/10/07 08:10:32;;;;;;;13.77;10.50;;;;;;;12.82;100.00;100945.47;5025191;28;20056;-62
2021/10/07 08:12:57;;;;;;;18.83;11.18;;;;;;;12.89;100.00;100949.31;5010169;28;20041;-62
2021/10/07 08:15:23;;;;;;;18.52;11.02;;;;;;;12.85;100.00;100945.19;4998122;28;20038;-63
2021/10/07 08:17:49;;;;;;;15.68;10.38;;;;;;;12.86;100.00;100953.13;4990852;28;20036;-63
2021/10/07 08:20:15;;;;;;;16.02;10.60;;;;;;;12.89;100.00;100955.56;4990392;28;20026;-63
2021/10/07 08:22:42;;;;;;;14.57;10.50;;;;;;;12.85;100.00;100942.50;4988945;28;20026;-63
2021/10/07 08:25:08;;;;;;;23.13;11.55;;;;;;;12.88;100.00;100948.47;4990587;28;20034;-62
2021/10/07 08:27:34;;;;;;;17.42;11.10;;;;;;;12.89;100.00;100950.19;4990166;28;20050;-63
2021/10/07 08:30:00;;;;;;;16.52;10.93;;;;;;;12.92;100.00;100954.44;4990152;28;20121;-62
2021/10/07 08:32:25;;;;;;;16.88;9.63;;;;;;;12.92;100.00;100958.00;4990313;28;20018;-63
2021/10/07 08:34:51;;;;;;;17.35;11.13;;;;;;;12.89;100.00;100938.53;4990154;28;20022;-64
2021/10/07 08:37:17;;;;;;;14.90;10.35;;;;;;;12.92;100.00;100951.75;4990036;28;20045;-63
2021/10/07 08:39:43;;;;;;;14.20;10.68;;;;;;;12.96;100.00;100961.28;4988811;28;20100;-64
2021/10/07 08:42:08;;;;;;;16.58;10.98;;;;;;;12.97;100.00;100958.44;4990472;28;20105;-63
2021/10/07 08:44:34;;;;;;;14.23;10.75;;;;;;;12.91;100.00;100948.22;4989634;28;20443;-65
2021/10/07 08:46:59;;;;;;;17.17;10.15;;;;;;;12.98;100.00;100949.38;4989958;28;20049;-64
2021/10/07 08:49:29;;;;;;;16.02;10.70;;;;;;;12.97;100.00;100952.22;4990066;28;20042;-63
2021/10/07 08:51:55;;;;;;;13.45;10.70;;;;;;;12.90;100.00;100940.28;4989715;28;20029;-63
2021/10/07 08:54:21;;;;;;;13.48;10.60;;;;;;;13.02;100.00;100955.38;4989835;28;20396;-63
2021/10/07 08:56:48;;;;;;;15.30;10.70;;;;;;;13.01;100.00;100945.59;4989817;28;20033;-64
2021/10/07 08:59:14;;;;;;;19.38;10.98;;;;;;;13.04;100.00;100943.50;4989584;28;20048;-63
2021/10/07 09:01:47;;;;;;;16.80;10.40;;;;;;;13.07;100.00;100956.69;4988798;28;20022;-63
2021/10/07 09:04:25;;;;;;;16.35;10.25;;;;;;;13.07;100.00;100947.75;4988843;28;20034;-63
2021/10/07 09:06:54;;;;;;;17.58;11.23;;;;;;;13.10;100.00;100942.94;4989636;28;20022;-64
2021/10/07 09:09:20;;;;;;;15.27;10.45;;;;;;;13.12;100.00;100943.66;4989395;28;20370;-63
2021/10/07 09:12:06;;;;;;;15.27;10.95;;;;;;;13.17;100.00;100937.88;4989564;28;20033;-62
2021/10/07 09:14:38;;;;;;;13.65;10.65;;;;;;;13.17;100.00;100936.03;4989612;28;20030;-63
2021/10/07 09:17:05;;;;;;;15.30;10.00;;;;;;;13.26;100.00;100942.44;4989441;28;20432;-63
2021/10/07 09:19:35;;;;;;;14.68;10.98;;;;;;;13.31;100.00;100941.03;4990314;28;20441;-63
2021/10/07 09:22:23;;;;;;;18.50;10.50;;;;;;;13.40;100.00;100944.75;4989570;28;20376;-63
2021/10/07 09:24:54;;;;;;;16.20;10.82;;;;;;;13.42;100.00;100934.69;4989496;28;20045;-64
2021/10/07 09:27:26;;;;;;;14.77;11.05;;;;;;;13.54;100.00;100956.00;4989496;28;20457;-64
2021/10/07 09:29:54;;;;;;;15.57;10.80;;;;;;;13.57;98.79;100952.16;4989668;28;20507;-64
2021/10/07 09:32:30;;;;;;;14.75;10.48;;;;;;;13.57;98.45;100955.72;4989221;28;20109;-63
2021/10/07 09:34:58;;;;;;;17.42;10.40;;;;;;;13.61;98.59;100959.84;4989250;28;20622;-64
2021/10/07 09:37:28;;;;;;;19.02;11.18;;;;;;;13.66;98.73;100962.13;4989331;28;20034;-65
2021/10/07 09:39:58;;;;;;;17.88;11.25;;;;;;;13.67;97.94;100944.94;4989306;28;20026;-63
2021/10/07 09:42:28;;;;;;;16.90;11.57;;;;;;;13.68;97.76;100938.59;4989190;28;20429;-64
2021/10/07 09:45:06;;;;;;;14.90;11.38;;;;;;;13.75;97.49;100942.41;4989486;28;20022;-63
2021/10/07 09:47:38;;;;;;;19.20;11.85;;;;;;;13.82;96.89;100943.56;5008793;28;20030;-64
2021/10/07 09:50:25;;;;;;;14.63;10.88;;;;;;;13.82;96.69;100935.47;5024309;28;20033;-63
2021/10/07 09:53:04;;;;;;;16.05;11.65;;;;;;;13.93;96.91;100935.31;5008946;28;20022;-64
2021/10/07 09:55:58;;;;;;;13.77;10.52;;;;;;;14.01;96.20;100921.13;5008523;28;20180;-63
2021/10/07 09:58:24;;;;;;;14.25;10.70;;;;;;;14.09;96.54;100924.81;4999629;28;20034;-63
2021/10/07 10:00:52;;;;;;;16.48;10.93;;;;;;;14.20;96.77;100927.41;5008721;28;20500;-64
2021/10/07 10:03:19;;;;;;;16.77;10.30;;;;;;;14.32;95.42;100922.72;5008484;28;20073;-63
2021/10/07 10:05:46;;;;;;;15.60;10.52;;;;;;;14.39;94.55;100930.13;5009015;28;20447;-63
2021/10/07 10:08:14;;;;;;;13.00;9.98;;;;;;;14.49;93.99;100930.94;5008898;28;20100;-64
2021/10/07 10:10:41;;;;;;;19.95;10.48;;;;;;;14.59;93.18;100923.69;5008735;28;20370;-63
2021/10/07 10:13:08;;;;;;;18.17;9.95;;;;;;;14.67;91.57;100923.78;5008773;28;20606;-65
2021/10/07 10:15:35;;;;;;;13.77;9.80;;;;;;;14.71;88.99;100917.13;5010500;28;20116;-64
2021/10/07 10:18:20;;;;;;;13.65;10.15;;;;;;;14.82;87.55;100924.16;5012302;28;20057;-62
2021/10/07 10:20:52;;;;;;;12.75;9.15;;;;;;;14.87;86.76;100925.44;5012119;28;20741;-63
2021/10/07 10:23:32;;;;;;;14.18;8.93;;;;;;;14.93;86.83;100924.84;5012372;28;20024;-63
2021/10/07 10:25:59;;;;;;;13.05;8.75;;;;;;;14.96;85.01;100929.13;5010570;28;20095;-62
2021/10/07 10:28:40;;;;;;;16.42;8.93;;;;;;;15.00;85.74;100927.81;5012194;28;20483;-64
2021/10/07 10:31:12;;;;;;;13.43;9.05;;;;;;;15.01;85.14;100927.69;5010557;28;20029;-64
2021/10/07 10:33:40;;;;;;;13.35;9.27;;;;;;;15.04;85.37;100931.91;5010643;28;20640;-64
2021/10/07 10:36:27;;;;;;;15.25;8.80;;;;;;;15.05;84.64;100933.63;5011793;28;20038;-63
2021/10/07 10:39:01;;;;;;;17.13;9.60;;;;;;;15.06;84.15;100940.75;5010486;28;20030;-64
2021/10/07 10:41:47;;;;;;;14.73;9.73;;;;;;;15.08;84.49;100938.72;5011903;28;20022;-64
2021/10/07 10:44:28;;;;;;;15.05;9.35;;;;;;;15.12;82.98;100938.28;5011723;28;20625;-64
2021/10/07 10:47:24;;;;;;;11.85;8.48;;;;;;;15.07;81.48;100934.31;5011628;28;20026;-64
2021/10/07 10:49:50;;;;;;;14.93;9.13;;;;;;;15.13;82.07;100948.06;5010876;28;20386;-63
2021/10/07 10:52:23;;;;;;;11.25;8.27;;;;;;;15.13;81.18;100948.06;5010460;28;20112;-63
2021/10/07 10:54:56;;;;;;;12.98;8.50;;;;;;;15.16;81.36;100946.94;5011918;28;20494;-63
2021/10/07 10:57:30;;;;;;;16.17;8.87;;;;;;;15.16;80.64;100947.78;5009404;28;20369;-64
2021/10/07 11:00:08;;;;;;;;;;;;;;;15.17;80.28;100948.66;4992271;28;20030;-64
2021/10/07 11:02:34;;;;;;;16.33;8.38;;;;;;;15.20;80.92;100951.91;4991813;28;20364;-65
2021/10/07 11:05:20;;;;;;;14.63;8.38;;;;;;;15.23;81.13;100940.81;4995063;28;20021;-63
2021/10/07 11:08:07;;;;;;;15.52;9.13;;;;;;;15.27;81.61;100946.75;5011628;28;20049;-63